createdAt,value
2019-03-27T00:00:33.577Z,17.40
2019-03-27T00:01:38.619Z,14.63
2019-03-27T00:02:43.580Z,20.20
2019-03-27T00:03:48.618Z,15.27
2019-03-27T00:04:53.776Z,15.83
2019-03-27T00:05:58.867Z,20.20
2019-03-27T00:07:03.821Z,18.27
2019-03-27T00:08:08.936Z,21.37
2019-03-27T00:09:14.229Z,15.23
2019-03-27T00:10:19.222Z,18.93
2019-03-27T00:11:24.265Z,16.97
2019-03-27T00:12:29.591Z,17.27
2019-03-27T00:13:34.557Z,19.80
2019-03-27T00:14:39.658Z,14.53
2019-03-27T00:15:45.036Z,17.30
2019-03-27T00:16:50.192Z,17.37
2019-03-27T00:17:55.256Z,17.13
2019-03-27T00:19:00.225Z,15.23
2019-03-27T00:20:05.587Z,21.67
2019-03-27T00:21:10.753Z,16.57
2019-03-27T00:22:15.764Z,15.37
2019-03-27T00:23:21.003Z,18.43
2019-03-27T00:24:26.020Z,17.83
2019-03-27T00:25:31.245Z,15.00
2019-03-27T00:26:36.283Z,21.20
2019-03-27T00:27:41.223Z,22.83
2019-03-27T00:28:47.556Z,20.70
2019-03-27T00:29:52.503Z,14.73
2019-03-27T00:30:57.652Z,17.37
2019-03-27T00:32:02.693Z,14.53
2019-03-27T00:33:07.801Z,17.87
2019-03-27T00:34:13.232Z,21.10
2019-03-27T00:35:18.247Z,16.10
2019-03-27T00:36:23.306Z,18.40
2019-03-27T00:37:28.265Z,19.43
2019-03-27T00:38:33.258Z,19.77
2019-03-27T00:39:38.305Z,16.90
2019-03-27T00:40:46.661Z,19.27
2019-03-27T00:41:51.963Z,17.07
2019-03-27T00:44:00.108Z,19.03
2019-03-27T00:45:05.734Z,16.10
2019-03-27T00:46:11.011Z,16.53
2019-03-27T00:47:16.277Z,15.67
2019-03-27T00:48:21.558Z,16.23
2019-03-27T00:49:26.808Z,18.10
2019-03-27T00:50:32.259Z,21.67
2019-03-27T00:51:37.535Z,19.10
2019-03-27T00:52:42.772Z,21.77
2019-03-27T00:53:48.196Z,20.07
2019-03-27T00:54:53.383Z,18.03
2019-03-27T00:55:58.735Z,20.50
2019-03-27T00:57:03.993Z,21.27
2019-03-27T00:58:09.218Z,21.80
2019-03-27T00:59:14.610Z,17.90
2019-03-27T01:00:29.732Z,17.00
2019-03-27T01:01:35.024Z,20.20
2019-03-27T01:02:40.293Z,21.93
2019-03-27T01:03:45.980Z,25.87
2019-03-27T01:04:51.461Z,19.97
2019-03-27T01:05:56.703Z,20.73
2019-03-27T01:07:02.037Z,27.27
2019-03-27T01:08:07.330Z,21.30
2019-03-27T01:09:12.698Z,24.10
2019-03-27T01:10:18.171Z,20.93
2019-03-27T01:11:23.508Z,23.73
2019-03-27T01:12:28.780Z,26.23
2019-03-27T01:13:34.385Z,26.70
2019-03-27T01:14:39.782Z,18.03
2019-03-27T01:15:46.337Z,25.50
2019-03-27T01:16:51.830Z,21.07
2019-03-27T01:17:57.125Z,25.37
2019-03-27T01:19:05.627Z,19.33
2019-03-27T01:20:11.048Z,16.70
2019-03-27T01:21:16.343Z,21.13
2019-03-27T01:22:21.692Z,24.83
2019-03-27T01:23:26.926Z,22.27
2019-03-27T01:24:32.143Z,21.43
2019-03-27T01:25:37.513Z,27.20
2019-03-27T01:26:42.824Z,24.83
2019-03-27T01:27:48.317Z,22.90
2019-03-27T01:28:53.651Z,25.93
2019-03-27T01:29:59.066Z,24.10
2019-03-27T01:31:04.349Z,23.70
2019-03-27T01:32:09.953Z,27.43
2019-03-27T01:33:15.193Z,23.80
2019-03-27T01:34:20.384Z,25.70
2019-03-27T01:35:25.642Z,26.30
2019-03-27T01:36:30.881Z,24.57
2019-03-27T01:37:36.258Z,19.93
2019-03-27T01:38:41.508Z,21.57
2019-03-27T01:39:46.714Z,25.07
2019-03-27T01:40:52.255Z,30.03
2019-03-27T01:41:57.733Z,26.93
2019-03-27T01:43:03.012Z,27.03
2019-03-27T01:44:08.285Z,28.03
2019-03-27T01:45:13.560Z,22.63
2019-03-27T01:46:18.992Z,30.30
2019-03-27T01:47:24.240Z,28.03
2019-03-27T01:48:29.441Z,28.90
2019-03-27T01:49:34.599Z,26.30
2019-03-27T01:50:39.865Z,26.73
2019-03-27T01:51:45.041Z,24.63
2019-03-27T01:52:50.360Z,24.10
2019-03-27T01:53:55.626Z,20.00
2019-03-27T01:55:01.151Z,23.27
2019-03-27T01:56:06.625Z,21.97
2019-03-27T01:57:12.107Z,21.83
2019-03-27T01:58:17.413Z,23.20
2019-03-27T01:59:22.666Z,28.50
2019-03-27T02:00:28.110Z,28.70
2019-03-27T02:01:33.538Z,23.50
2019-03-27T02:02:38.889Z,31.17
2019-03-27T02:03:44.087Z,21.97
2019-03-27T02:04:49.291Z,22.07
2019-03-27T02:05:54.609Z,27.70
2019-03-27T02:06:59.796Z,25.33
2019-03-27T02:08:05.198Z,23.63
2019-03-27T02:09:10.409Z,28.03
2019-03-27T02:10:15.960Z,24.40
2019-03-27T02:11:21.221Z,28.17
2019-03-27T02:12:26.538Z,27.97
2019-03-27T02:13:31.777Z,22.57
2019-03-27T02:14:37.047Z,31.87
2019-03-27T02:15:42.471Z,26.57
2019-03-27T02:16:48.028Z,25.47
2019-03-27T02:17:53.195Z,31.10
2019-03-27T02:18:59.077Z,23.60
2019-03-27T02:20:04.408Z,26.00
2019-03-27T02:21:09.791Z,21.67
2019-03-27T02:22:15.047Z,23.33
2019-03-27T02:23:20.388Z,26.03
2019-03-27T02:24:25.741Z,34.77
2019-03-27T02:25:31.044Z,26.57
2019-03-27T02:26:36.321Z,27.97
2019-03-27T02:27:41.558Z,26.83
2019-03-27T02:28:47.244Z,30.00
2019-03-27T02:29:52.426Z,24.10
2019-03-27T02:30:57.694Z,23.57
2019-03-27T02:32:03.063Z,24.40
2019-03-27T02:33:08.277Z,31.70
2019-03-27T02:34:13.732Z,27.67
2019-03-27T02:35:18.929Z,26.33
2019-03-27T02:36:24.258Z,27.77
2019-03-27T02:37:29.476Z,26.63
2019-03-27T02:38:34.999Z,31.83
2019-03-27T02:39:40.478Z,31.40
2019-03-27T02:40:45.726Z,29.53
2019-03-27T02:41:51.120Z,31.33
2019-03-27T02:42:56.348Z,32.37
2019-03-27T02:44:01.729Z,32.60
2019-03-27T02:45:07.103Z,34.30
2019-03-27T02:46:24.579Z,37.10
2019-03-27T02:47:19.374Z,36.57
2019-03-27T02:48:24.603Z,34.93
2019-03-27T02:49:29.947Z,27.50
2019-03-27T02:50:35.183Z,33.57
2019-03-27T02:51:40.424Z,31.27
2019-03-27T02:52:45.666Z,31.10
2019-03-27T02:53:50.909Z,39.27
2019-03-27T02:54:56.205Z,30.93
2019-03-27T02:56:01.908Z,33.90
2019-03-27T02:57:07.061Z,34.20
2019-03-27T02:58:12.660Z,35.87
2019-03-27T02:59:17.916Z,48.93
2019-03-27T03:00:23.197Z,34.67
2019-03-27T03:01:28.427Z,36.43
2019-03-27T03:02:33.673Z,31.93
2019-03-27T03:03:38.970Z,39.33
2019-03-27T03:04:44.250Z,33.07
2019-03-27T03:05:49.524Z,39.83
2019-03-27T03:06:54.857Z,41.00
2019-03-27T03:08:00.086Z,37.37
2019-03-27T03:09:07.334Z,39.73
2019-03-27T03:10:13.141Z,34.47
2019-03-27T03:11:18.368Z,33.13
2019-03-27T03:12:23.701Z,37.00
2019-03-27T03:13:28.911Z,33.63
2019-03-27T03:14:34.152Z,30.47
2019-03-27T03:15:39.403Z,34.17
2019-03-27T03:16:44.636Z,36.60
2019-03-27T03:17:50.041Z,32.27
2019-03-27T03:18:55.297Z,27.30
2019-03-27T03:20:00.621Z,32.83
2019-03-27T03:21:06.042Z,28.90
2019-03-27T03:22:11.485Z,30.47
2019-03-27T03:23:17.104Z,31.93
2019-03-27T03:24:22.293Z,30.70
2019-03-27T03:25:27.606Z,28.90
2019-03-27T03:26:32.854Z,27.37
2019-03-27T03:27:38.226Z,28.87
2019-03-27T03:28:43.610Z,34.87
2019-03-27T03:29:48.936Z,38.63
2019-03-27T03:30:54.176Z,33.20
2019-03-27T03:31:59.613Z,31.77
2019-03-27T03:33:05.055Z,31.77
2019-03-27T03:34:10.843Z,33.70
2019-03-27T03:35:16.558Z,33.63
2019-03-27T03:36:21.738Z,34.10
2019-03-27T03:37:27.005Z,32.40
2019-03-27T03:38:32.497Z,37.70
2019-03-27T03:39:37.776Z,39.50
2019-03-27T03:40:43.014Z,33.23
2019-03-27T03:41:48.256Z,31.47
2019-03-27T03:42:53.464Z,33.87
2019-03-27T03:43:58.594Z,33.17
2019-03-27T03:45:03.914Z,30.00
2019-03-27T03:46:09.128Z,38.53
2019-03-27T03:47:14.549Z,31.40
2019-03-27T03:48:19.727Z,44.27
2019-03-27T03:49:24.973Z,28.50
2019-03-27T03:50:42.308Z,31.93
2019-03-27T03:51:47.807Z,38.03
2019-03-27T03:52:53.008Z,35.43
2019-03-27T03:53:58.456Z,32.90
2019-03-27T03:55:03.732Z,33.30
2019-03-27T03:56:11.198Z,31.37
2019-03-27T03:57:18.281Z,38.47
2019-03-27T03:58:24.906Z,33.27
2019-03-27T03:59:31.116Z,30.67
2019-03-27T04:00:36.798Z,31.40
2019-03-27T04:01:44.203Z,29.97
2019-03-27T04:02:50.713Z,30.57
2019-03-27T04:03:57.493Z,31.73
2019-03-27T04:05:04.111Z,32.47
2019-03-27T04:06:09.358Z,28.90
2019-03-27T04:07:14.716Z,34.00
2019-03-27T04:08:19.805Z,34.80
2019-03-27T04:09:25.031Z,25.53
2019-03-27T04:10:30.352Z,27.70
2019-03-27T04:11:35.777Z,30.60
2019-03-27T04:12:41.209Z,31.30
2019-03-27T04:13:46.523Z,28.43
2019-03-27T04:14:51.894Z,31.73
2019-03-27T04:15:57.174Z,24.93
2019-03-27T04:17:16.298Z,23.67
2019-03-27T04:18:09.609Z,30.57
2019-03-27T04:19:14.961Z,27.07
2019-03-27T04:20:20.226Z,32.73
2019-03-27T04:21:27.051Z,24.20
2019-03-27T04:22:32.445Z,25.80
2019-03-27T04:23:37.805Z,24.33
2019-03-27T04:24:43.162Z,25.97
2019-03-27T04:26:08.389Z,32.53
2019-03-27T04:26:55.269Z,30.77
2019-03-27T04:28:00.526Z,26.93
2019-03-27T04:29:05.742Z,25.97
2019-03-27T04:30:11.287Z,26.30
2019-03-27T04:31:17.097Z,22.57
2019-03-27T04:32:22.424Z,23.40
2019-03-27T04:33:27.899Z,25.80
2019-03-27T04:34:33.115Z,28.80
2019-03-27T04:35:38.518Z,21.77
2019-03-27T04:36:43.794Z,23.23
2019-03-27T04:37:49.056Z,27.47
2019-03-27T04:38:54.307Z,21.73
2019-03-27T04:39:59.672Z,23.47
2019-03-27T04:41:04.927Z,26.33
2019-03-27T04:42:10.200Z,24.60
2019-03-27T04:43:15.702Z,22.77
2019-03-27T04:44:20.930Z,26.43
2019-03-27T04:45:26.180Z,28.60
2019-03-27T04:46:31.529Z,19.20
2019-03-27T04:47:36.768Z,23.90
2019-03-27T04:48:42.046Z,26.90
2019-03-27T04:49:47.291Z,34.93
2019-03-27T04:50:52.497Z,24.63
2019-03-27T04:51:57.880Z,25.60
2019-03-27T04:53:03.282Z,22.50
2019-03-27T04:54:08.533Z,21.43
2019-03-27T04:55:14.044Z,24.10
2019-03-27T04:56:19.394Z,21.63
2019-03-27T04:57:24.564Z,22.27
2019-03-27T04:58:29.909Z,23.20
2019-03-27T04:59:35.264Z,24.17
2019-03-27T05:00:40.505Z,23.97
2019-03-27T05:01:45.890Z,24.47
2019-03-27T05:02:51.221Z,19.73
2019-03-27T05:03:56.828Z,20.20
2019-03-27T05:05:02.758Z,18.80
2019-03-27T05:06:07.988Z,23.90
2019-03-27T05:07:13.847Z,22.83
2019-03-27T05:08:19.446Z,20.60
2019-03-27T05:09:24.718Z,18.70
2019-03-27T05:10:29.970Z,15.77
2019-03-27T05:11:35.284Z,24.23
2019-03-27T05:12:40.517Z,19.47
2019-03-27T05:13:45.757Z,22.53
2019-03-27T05:14:51.002Z,23.13
2019-03-27T05:15:56.339Z,19.17
2019-03-27T05:17:01.548Z,23.70
2019-03-27T05:18:06.851Z,21.00
2019-03-27T05:19:12.372Z,16.90
2019-03-27T05:20:17.771Z,17.33
2019-03-27T05:21:22.952Z,21.33
2019-03-27T05:22:28.430Z,18.27
2019-03-27T05:23:33.720Z,22.33
2019-03-27T05:24:39.256Z,21.13
2019-03-27T05:25:44.524Z,18.17
2019-03-27T05:26:49.890Z,14.87
2019-03-27T05:27:55.141Z,18.90
2019-03-27T05:29:00.451Z,22.27
2019-03-27T05:30:06.022Z,16.37
2019-03-27T05:31:11.525Z,19.47
2019-03-27T05:32:17.030Z,14.30
2019-03-27T05:33:22.164Z,20.17
2019-03-27T05:34:27.641Z,16.23
2019-03-27T05:35:32.984Z,18.13
2019-03-27T05:36:38.215Z,12.57
2019-03-27T05:37:43.433Z,11.97
2019-03-27T05:38:48.747Z,14.70
2019-03-27T05:39:54.135Z,13.53
2019-03-27T05:40:59.394Z,14.33
2019-03-27T05:42:04.576Z,17.57
2019-03-27T05:43:10.198Z,17.50
2019-03-27T05:44:16.142Z,12.90
2019-03-27T05:45:21.735Z,12.23
2019-03-27T05:46:27.104Z,13.77
2019-03-27T05:47:32.588Z,13.30
2019-03-27T05:48:38.123Z,17.75
2019-03-27T05:49:43.418Z,16.07
2019-03-27T05:50:48.667Z,16.67
2019-03-27T05:51:54.150Z,15.57
2019-03-27T05:52:59.628Z,14.57
2019-03-27T05:54:04.981Z,14.13
2019-03-27T05:55:10.654Z,16.03
2019-03-27T05:56:16.315Z,14.07
2019-03-27T05:57:21.979Z,16.00
2019-03-27T05:58:27.331Z,13.87
2019-03-27T05:59:33.207Z,16.60
2019-03-27T06:00:38.542Z,17.80
2019-03-27T06:01:43.795Z,13.97
2019-03-27T06:02:49.087Z,15.00
2019-03-27T06:03:54.427Z,13.97
2019-03-27T06:05:00.363Z,12.50
2019-03-27T06:06:10.748Z,19.10
2019-03-27T06:07:16.102Z,14.60
2019-03-27T06:08:21.333Z,14.07
2019-03-27T06:09:27.099Z,12.60
2019-03-27T06:10:32.518Z,14.20
2019-03-27T06:11:37.865Z,11.63
2019-03-27T06:12:43.070Z,13.73
2019-03-27T06:13:48.338Z,17.30
2019-03-27T06:14:53.505Z,15.23
2019-03-27T06:15:58.825Z,13.53
2019-03-27T06:17:04.234Z,13.50
2019-03-27T06:18:13.246Z,14.70
2019-03-27T06:19:16.463Z,13.13
2019-03-27T06:20:21.690Z,14.87
2019-03-27T06:21:27.080Z,18.17
2019-03-27T06:22:32.337Z,11.73
2019-03-27T06:23:37.718Z,15.07
2019-03-27T06:24:43.044Z,16.67
2019-03-27T06:25:48.468Z,12.93
2019-03-27T06:26:53.887Z,13.87
2019-03-27T06:27:59.262Z,13.20
2019-03-27T06:29:04.651Z,12.53
2019-03-27T06:30:10.095Z,13.50
2019-03-27T06:31:15.458Z,11.73
2019-03-27T06:32:21.252Z,13.10
2019-03-27T06:33:26.538Z,15.57
2019-03-27T06:34:31.765Z,15.87
2019-03-27T06:35:37.321Z,11.97
2019-03-27T06:36:42.698Z,13.30
2019-03-27T06:37:48.026Z,15.70
2019-03-27T06:38:53.469Z,14.57
2019-03-27T06:39:58.691Z,13.17
2019-03-27T06:41:04.010Z,13.33
2019-03-27T06:42:09.479Z,15.30
2019-03-27T06:43:14.806Z,12.83
2019-03-27T06:44:20.371Z,16.33
2019-03-27T06:45:25.806Z,15.60
2019-03-27T06:46:31.186Z,11.80
2019-03-27T06:47:36.581Z,13.90
2019-03-27T06:48:41.806Z,12.87
2019-03-27T06:49:47.036Z,17.13
2019-03-27T06:50:52.344Z,15.40
2019-03-27T06:51:57.706Z,15.90
2019-03-27T06:53:03.134Z,11.97
2019-03-27T06:54:08.408Z,17.07
2019-03-27T06:55:13.849Z,11.33
2019-03-27T06:56:19.322Z,12.33
2019-03-27T06:57:24.699Z,12.47
2019-03-27T06:58:29.957Z,12.27
2019-03-27T06:59:35.181Z,16.30
2019-03-27T07:00:40.663Z,11.30
2019-03-27T07:01:45.973Z,15.90
2019-03-27T07:02:51.362Z,14.83
2019-03-27T07:04:09.536Z,19.47
2019-03-27T07:05:03.663Z,14.60
2019-03-27T07:06:08.898Z,10.17
2019-03-27T07:07:14.156Z,10.60
2019-03-27T07:08:20.091Z,14.50
2019-03-27T07:09:25.405Z,14.63
2019-03-27T07:10:30.601Z,20.63
2019-03-27T07:11:35.851Z,13.47
2019-03-27T07:12:41.123Z,12.80
2019-03-27T07:13:46.298Z,14.57
2019-03-27T07:14:51.642Z,15.93
2019-03-27T07:15:56.891Z,11.27
2019-03-27T07:17:02.508Z,15.40
2019-03-27T07:18:07.817Z,14.03
2019-03-27T07:19:13.248Z,11.30
2019-03-27T07:20:19.223Z,12.80
2019-03-27T07:21:24.664Z,14.37
2019-03-27T07:22:29.923Z,14.03
2019-03-27T07:23:35.280Z,13.97
2019-03-27T07:24:40.726Z,10.77
2019-03-27T07:25:45.960Z,18.53
2019-03-27T07:26:51.231Z,18.33
2019-03-27T07:27:56.415Z,17.63
2019-03-27T07:29:01.639Z,13.80
2019-03-27T07:30:07.451Z,12.97
2019-03-27T07:31:12.709Z,16.47
2019-03-27T07:32:18.497Z,12.63
2019-03-27T07:33:24.305Z,17.93
2019-03-27T07:34:29.596Z,15.83
2019-03-27T07:35:35.075Z,16.43
2019-03-27T07:36:40.429Z,11.77
2019-03-27T07:37:45.794Z,11.63
2019-03-27T07:38:51.118Z,13.03
2019-03-27T07:39:56.339Z,14.03
2019-03-27T07:41:01.629Z,16.07
2019-03-27T07:42:06.905Z,11.90
2019-03-27T07:43:12.236Z,12.80
2019-03-27T07:44:18.056Z,17.40
2019-03-27T07:45:23.635Z,11.83
2019-03-27T07:46:28.964Z,18.20
2019-03-27T07:47:34.632Z,13.75
2019-03-27T07:48:52.976Z,17.07
2019-03-27T07:49:46.855Z,11.18
2019-03-27T07:50:52.253Z,8.68
2019-03-27T07:51:57.648Z,14.40
2019-03-27T07:53:02.945Z,16.40
2019-03-27T07:54:08.530Z,12.90
2019-03-27T07:55:19.523Z,10.68
2019-03-27T07:56:21.193Z,12.50
2019-03-27T07:57:26.383Z,14.25
2019-03-27T07:58:31.656Z,12.63
2019-03-27T07:59:37.487Z,11.48
2019-03-27T08:00:42.704Z,8.75
2019-03-27T08:01:48.013Z,12.82
2019-03-27T08:02:53.387Z,14.00
2019-03-27T08:03:58.884Z,12.10
2019-03-27T08:05:04.381Z,13.50
2019-03-27T08:06:09.723Z,11.97
2019-03-27T08:07:26.161Z,13.03
2019-03-27T08:08:22.106Z,17.62
2019-03-27T08:09:27.318Z,11.57
2019-03-27T08:10:32.551Z,15.65
2019-03-27T08:11:37.989Z,11.00
2019-03-27T08:12:43.392Z,13.38
2019-03-27T08:13:48.616Z,10.23
2019-03-27T08:14:53.969Z,8.65
2019-03-27T08:15:59.414Z,11.80
2019-03-27T08:17:04.732Z,8.63
2019-03-27T08:18:10.008Z,10.65
2019-03-27T08:19:15.432Z,12.37
2019-03-27T08:20:21.067Z,11.15
2019-03-27T08:21:26.378Z,10.60
2019-03-27T08:22:31.616Z,14.35
2019-03-27T08:23:36.998Z,8.75
2019-03-27T08:24:42.310Z,7.90
2019-03-27T08:25:47.651Z,8.65
2019-03-27T08:26:52.927Z,7.85
2019-03-27T08:27:58.139Z,9.15
2019-03-27T08:29:03.387Z,12.43
2019-03-27T08:30:11.514Z,13.08
2019-03-27T08:31:16.722Z,10.13
2019-03-27T08:32:22.532Z,10.00
2019-03-27T08:33:27.719Z,14.33
2019-03-27T08:34:32.892Z,12.75
2019-03-27T08:35:38.520Z,12.00
2019-03-27T08:36:43.945Z,9.80
2019-03-27T08:37:49.305Z,7.67
2019-03-27T08:38:54.562Z,7.90
2019-03-27T08:39:59.849Z,11.15
2019-03-27T08:41:05.101Z,16.15
2019-03-27T08:42:10.375Z,9.50
2019-03-27T08:43:21.545Z,14.80
2019-03-27T08:44:22.942Z,12.37
2019-03-27T08:45:28.653Z,10.70
2019-03-27T08:46:33.929Z,11.80
2019-03-27T08:47:39.564Z,11.22
2019-03-27T08:48:44.866Z,11.35
2019-03-27T08:49:50.159Z,13.43
2019-03-27T08:50:55.377Z,12.28
2019-03-27T08:52:00.615Z,12.75
2019-03-27T08:53:05.967Z,10.28
2019-03-27T08:54:11.299Z,12.30
2019-03-27T08:55:16.618Z,11.93
2019-03-27T08:56:22.148Z,10.95
2019-03-27T08:57:27.416Z,10.68
2019-03-27T08:58:32.661Z,11.90
2019-03-27T08:59:38.170Z,10.85
2019-03-27T09:00:53.964Z,14.18
2019-03-27T09:01:59.668Z,11.88
2019-03-27T09:03:43.244Z,14.23
2019-03-27T09:05:21.220Z,11.10
2019-03-27T09:06:56.519Z,11.38
2019-03-27T09:08:41.039Z,9.38
2019-03-27T09:09:46.836Z,11.25
2019-03-27T09:10:52.186Z,10.45
2019-03-27T09:11:57.699Z,12.07
2019-03-27T09:13:02.988Z,12.28
2019-03-27T09:14:08.627Z,12.10
2019-03-27T09:15:14.370Z,11.90
2019-03-27T09:16:19.735Z,12.07
2019-03-27T09:17:25.227Z,10.32
2019-03-27T09:18:30.570Z,8.50
2019-03-27T09:19:36.499Z,9.40
2019-03-27T09:20:41.788Z,9.03
2019-03-27T09:21:47.172Z,9.40
2019-03-27T09:22:52.504Z,9.35
2019-03-27T09:23:57.784Z,11.88
2019-03-27T09:25:03.311Z,9.98
2019-03-27T09:26:08.612Z,8.28
2019-03-27T09:27:14.073Z,11.43
2019-03-27T09:28:19.571Z,8.25
2019-03-27T09:29:25.362Z,8.55
2019-03-27T09:30:30.578Z,8.23
2019-03-27T09:31:44.643Z,10.03
2019-03-27T09:32:42.972Z,8.58
2019-03-27T09:33:48.401Z,7.60
2019-03-27T09:34:53.467Z,9.98
2019-03-27T09:35:58.751Z,9.70
2019-03-27T09:37:04.160Z,7.58
2019-03-27T09:38:09.456Z,9.35
2019-03-27T09:39:14.975Z,9.60
2019-03-27T09:40:20.523Z,15.15
2019-03-27T09:41:26.360Z,11.12
2019-03-27T09:42:31.746Z,10.05
2019-03-27T09:43:37.074Z,10.65
2019-03-27T09:44:42.412Z,7.00
2019-03-27T09:45:47.676Z,9.73
2019-03-27T09:46:52.965Z,8.63
2019-03-27T09:47:58.234Z,7.67
2019-03-27T09:49:06.191Z,7.95
2019-03-27T09:50:11.702Z,8.48
2019-03-27T09:51:17.294Z,12.35
2019-03-27T09:52:23.162Z,11.43
2019-03-27T09:53:28.489Z,8.78
2019-03-27T09:54:33.769Z,7.62
2019-03-27T09:55:39.306Z,11.48
2019-03-27T09:56:44.658Z,9.90
2019-03-27T09:57:49.984Z,9.13
2019-03-27T09:58:55.237Z,10.30
2019-03-27T10:00:00.532Z,9.68
2019-03-27T10:01:07.345Z,9.08
2019-03-27T10:02:12.799Z,9.63
2019-03-27T10:03:18.092Z,9.13
2019-03-27T10:04:23.830Z,6.90
2019-03-27T10:05:29.303Z,6.20
2019-03-27T10:06:34.494Z,9.60
2019-03-27T10:07:39.773Z,8.65
2019-03-27T10:08:44.986Z,7.03
2019-03-27T10:09:50.503Z,7.53
2019-03-27T10:10:55.826Z,6.00
2019-03-27T10:12:01.259Z,6.40
2019-03-27T10:13:06.587Z,8.60
2019-03-27T10:14:11.976Z,9.55
2019-03-27T10:15:17.488Z,6.60
2019-03-27T10:16:22.939Z,5.90
2019-03-27T10:17:28.441Z,5.10
2019-03-27T10:18:33.713Z,8.90
2019-03-27T10:19:39.081Z,10.13
2019-03-27T10:20:44.341Z,8.13
2019-03-27T10:21:49.565Z,7.83
2019-03-27T10:22:54.880Z,8.93
2019-03-27T10:24:00.192Z,6.75
2019-03-27T10:25:06.500Z,8.75
2019-03-27T10:26:11.879Z,10.10
2019-03-27T10:27:17.004Z,6.58
2019-03-27T10:28:22.387Z,7.85
2019-03-27T10:29:28.057Z,7.83
2019-03-27T10:30:33.498Z,8.23
2019-03-27T10:31:38.902Z,8.23
2019-03-27T10:32:44.203Z,8.08
2019-03-27T10:33:49.473Z,6.40
2019-03-27T10:34:54.757Z,7.25
2019-03-27T10:36:00.034Z,7.97
2019-03-27T10:37:05.517Z,7.95
2019-03-27T10:38:10.768Z,8.90
2019-03-27T10:39:16.367Z,8.40
2019-03-27T10:40:21.792Z,9.23
2019-03-27T10:41:27.269Z,9.30
2019-03-27T10:42:32.704Z,6.35
2019-03-27T10:43:38.115Z,8.33
2019-03-27T10:44:43.576Z,7.37
2019-03-27T10:45:48.739Z,9.70
2019-03-27T10:46:54.069Z,6.70
2019-03-27T10:47:59.480Z,7.75
2019-03-27T10:49:04.706Z,9.58
2019-03-27T10:50:17.399Z,9.30
2019-03-27T10:51:17.180Z,8.38
2019-03-27T10:52:22.611Z,10.48
2019-03-27T10:53:28.298Z,8.25
2019-03-27T10:54:33.637Z,6.37
2019-03-27T10:55:39.331Z,5.78
2019-03-27T10:56:44.542Z,8.28
2019-03-27T10:57:49.719Z,4.78
2019-03-27T10:58:54.970Z,6.83
2019-03-27T11:00:00.344Z,7.58
2019-03-27T11:01:07.278Z,4.00
2019-03-27T11:02:12.722Z,4.60
2019-03-27T11:03:20.759Z,5.60
2019-03-27T11:04:25.843Z,4.70
2019-03-27T11:05:31.157Z,5.72
2019-03-27T11:06:36.615Z,5.42
2019-03-27T11:07:41.888Z,4.72
2019-03-27T11:08:47.209Z,6.03
2019-03-27T11:09:52.518Z,7.78
2019-03-27T11:10:57.812Z,8.98
2019-03-27T11:12:03.122Z,8.08
2019-03-27T11:13:08.297Z,5.90
2019-03-27T11:14:13.755Z,6.45
2019-03-27T11:15:19.231Z,6.95
2019-03-27T11:16:25.101Z,4.67
2019-03-27T11:17:30.253Z,6.25
2019-03-27T11:18:35.649Z,5.58
2019-03-27T11:19:40.992Z,8.38
2019-03-27T11:20:46.374Z,6.55
2019-03-27T11:21:51.679Z,7.85
2019-03-27T11:22:56.972Z,6.53
2019-03-27T11:24:02.253Z,4.90
2019-03-27T11:25:07.777Z,7.62
2019-03-27T11:26:13.199Z,6.97
2019-03-27T11:27:18.418Z,6.95
2019-03-27T11:28:23.971Z,6.37
2019-03-27T11:29:29.399Z,4.45
2019-03-27T11:30:39.418Z,7.08
2019-03-27T11:31:44.821Z,4.40
2019-03-27T11:32:50.060Z,4.95
2019-03-27T11:33:55.320Z,2.67
2019-03-27T11:35:00.743Z,6.55
2019-03-27T11:36:06.473Z,7.30
2019-03-27T11:37:11.849Z,7.25
2019-03-27T11:38:17.487Z,7.30
2019-03-27T11:39:24.796Z,5.17
2019-03-27T11:40:30.245Z,6.00
2019-03-27T11:41:35.838Z,5.15
2019-03-27T11:42:41.125Z,5.53
2019-03-27T11:43:54.645Z,6.17
2019-03-27T11:44:53.217Z,9.28
2019-03-27T11:45:58.484Z,5.15
2019-03-27T11:47:03.669Z,6.37
2019-03-27T11:48:08.982Z,6.03
2019-03-27T11:49:15.617Z,6.85
2019-03-27T11:50:20.554Z,7.87
2019-03-27T11:51:25.644Z,5.85
2019-03-27T11:52:30.663Z,5.35
2019-03-27T11:53:35.628Z,7.03
2019-03-27T11:54:40.605Z,4.87
2019-03-27T11:55:45.668Z,6.50
2019-03-27T11:56:50.765Z,6.10
2019-03-27T11:57:55.891Z,9.48
2019-03-27T11:59:01.184Z,4.85
2019-03-27T12:00:07.951Z,5.42
2019-03-27T12:01:13.590Z,7.17
2019-03-27T12:02:19.114Z,5.97
2019-03-27T12:03:24.874Z,8.18
2019-03-27T12:04:30.465Z,4.58
2019-03-27T12:05:36.013Z,7.95
2019-03-27T12:06:41.411Z,6.65
2019-03-27T12:07:47.635Z,5.33
2019-03-27T12:08:53.169Z,5.97
2019-03-27T12:09:58.571Z,5.67
2019-03-27T12:11:04.045Z,6.42
2019-03-27T12:12:09.586Z,3.65
2019-03-27T12:13:15.056Z,6.00
2019-03-27T12:14:20.606Z,5.87
2019-03-27T12:15:41.028Z,6.87
2019-03-27T12:16:49.887Z,7.05
2019-03-27T12:17:54.321Z,6.90
2019-03-27T12:19:00.045Z,5.53
2019-03-27T12:20:06.377Z,4.92
2019-03-27T12:21:11.905Z,6.10
2019-03-27T12:22:19.089Z,6.42
2019-03-27T12:23:24.630Z,8.15
2019-03-27T12:24:30.671Z,7.62
2019-03-27T12:25:45.753Z,7.47
2019-03-27T12:26:51.353Z,5.17
2019-03-27T12:27:57.188Z,6.58
2019-03-27T12:29:02.738Z,5.62
2019-03-27T12:30:08.595Z,3.87
2019-03-27T12:31:14.493Z,5.40
2019-03-27T12:32:20.009Z,5.03
2019-03-27T12:33:25.611Z,6.75
2019-03-27T12:34:31.103Z,7.17
2019-03-27T12:35:36.771Z,5.90
2019-03-27T12:36:42.014Z,7.03
2019-03-27T12:37:47.256Z,6.37
2019-03-27T12:38:52.507Z,4.12
2019-03-27T12:39:57.902Z,5.25
2019-03-27T12:41:03.357Z,9.35
2019-03-27T12:42:08.802Z,7.30
2019-03-27T12:43:14.284Z,4.40
2019-03-27T12:44:19.785Z,5.55
2019-03-27T12:45:25.032Z,6.50
2019-03-27T12:46:30.538Z,6.60
2019-03-27T12:47:36.092Z,4.83
2019-03-27T12:48:41.585Z,5.95
2019-03-27T12:49:46.966Z,9.40
2019-03-27T12:50:52.283Z,5.25
2019-03-27T12:51:57.761Z,6.45
2019-03-27T12:53:03.479Z,11.30
2019-03-27T12:54:09.157Z,5.85
2019-03-27T12:55:14.859Z,6.90
2019-03-27T12:56:20.223Z,7.45
2019-03-27T12:57:25.551Z,4.97
2019-03-27T12:58:31.074Z,4.05
2019-03-27T12:59:37.918Z,4.22
2019-03-27T13:00:43.257Z,5.90
2019-03-27T13:01:48.805Z,3.42
2019-03-27T13:02:54.229Z,6.80
2019-03-27T13:03:59.457Z,3.72
2019-03-27T13:05:05.023Z,5.53
2019-03-27T13:06:10.639Z,7.97
2019-03-27T13:07:16.159Z,5.83
2019-03-27T13:08:21.808Z,7.05
2019-03-27T13:09:27.688Z,5.00
2019-03-27T13:10:33.049Z,4.42
2019-03-27T13:11:38.629Z,5.47
2019-03-27T13:12:44.046Z,6.53
2019-03-27T13:13:49.430Z,3.27
2019-03-27T13:14:55.103Z,3.40
2019-03-27T13:16:00.661Z,3.60
2019-03-27T13:17:06.239Z,4.42
2019-03-27T13:18:11.769Z,3.70
2019-03-27T13:19:17.209Z,3.92
2019-03-27T13:20:22.622Z,4.55
2019-03-27T13:21:28.153Z,3.35
2019-03-27T13:22:33.584Z,3.62
2019-03-27T13:23:39.143Z,3.75
2019-03-27T13:24:44.484Z,5.97
2019-03-27T13:25:50.017Z,3.62
2019-03-27T13:26:55.342Z,8.90
2019-03-27T13:28:00.756Z,4.72
2019-03-27T13:29:06.334Z,4.53
2019-03-27T13:30:31.849Z,3.65
2019-03-27T13:31:40.518Z,4.53
2019-03-27T13:32:46.097Z,4.22
2019-03-27T13:33:56.880Z,4.30
2019-03-27T13:35:02.481Z,3.55
2019-03-27T13:36:08.793Z,5.08
2019-03-27T13:37:14.226Z,7.42
2019-03-27T13:38:19.767Z,5.40
2019-03-27T13:39:25.293Z,4.17
2019-03-27T13:40:30.738Z,4.62
2019-03-27T13:41:36.329Z,4.62
2019-03-27T13:42:41.793Z,6.33
2019-03-27T13:43:47.213Z,5.35
2019-03-27T13:44:52.594Z,3.67
2019-03-27T13:45:57.862Z,4.42
2019-03-27T13:47:03.328Z,6.05
2019-03-27T13:48:09.057Z,3.80
2019-03-27T13:49:14.501Z,5.22
2019-03-27T13:50:20.360Z,4.90
2019-03-27T13:51:39.514Z,6.45
2019-03-27T13:52:33.035Z,4.20
2019-03-27T13:53:39.020Z,4.47
2019-03-27T13:54:44.595Z,3.87
2019-03-27T13:55:49.858Z,5.62
2019-03-27T13:56:55.362Z,5.08
2019-03-27T13:58:00.540Z,5.30
2019-03-27T13:59:05.904Z,5.10
2019-03-27T14:00:12.363Z,3.37
2019-03-27T14:01:17.680Z,2.45
2019-03-27T14:02:23.099Z,6.10
2019-03-27T14:03:28.448Z,3.50
2019-03-27T14:04:34.334Z,8.10
2019-03-27T14:05:40.020Z,7.90
2019-03-27T14:06:45.462Z,7.10
2019-03-27T14:07:51.031Z,6.83
2019-03-27T14:08:56.462Z,7.10
2019-03-27T14:10:01.836Z,6.12
2019-03-27T14:11:07.422Z,5.00
2019-03-27T14:12:13.105Z,4.17
2019-03-27T14:13:19.516Z,5.00
2019-03-27T14:14:24.935Z,7.12
2019-03-27T14:15:30.421Z,4.80
2019-03-27T14:16:35.853Z,5.85
2019-03-27T14:17:44.364Z,3.90